Time;durP1;ratioP1;P1;durP2;ratioP2;P2;SDS_P1;SDS_P2;PMS_P1;PMS_P2;Temp;Humidity;BMP_temperature;BMP_pressure;BME280_temperature;BME280_humidity;BME280_pressure;Samples;Min_cycle;Max_cycle;Signal;HPM_P1;HPM_P2
2023/04/23 00:01:19;;;;;;;6.97;6.00;;;;;;;11.37;78.75;94818.16;5063332;28;20443;-81
2023/04/23 00:03:48;;;;;;;6.20;5.67;;;;;;;11.38;78.14;94817.19;5115588;28;20470;-80
2023/04/23 00:06:16;;;;;;;10.17;6.00;;;;;;;11.36;79.19;94813.06;5115558;28;20492;-80
2023/04/23 00:08:43;;;;;;;7.07;5.93;;;;;;;11.34;78.15;94814.97;5115315;28;20443;-81
2023/04/23 00:11:11;;;;;;;9.73;6.80;;;;;;;11.30;77.29;94813.59;5113148;28;20450;-82
2023/04/23 00:13:38;;;;;;;8.43;5.90;;;;;;;11.21;78.33;94815.22;5114412;28;20447;-81
2023/04/23 00:16:06;;;;;;;5.30;4.87;;;;;;;11.12;78.08;94811.63;5114461;28;20539;-80
2023/04/23 00:18:34;;;;;;;6.83;5.87;;;;;;;11.13;78.69;94812.44;5115146;28;20474;-80
2023/04/23 00:21:01;;;;;;;7.33;5.60;;;;;;;11.13;78.22;94813.28;5114890;28;20423;-81
2023/04/23 00:23:28;;;;;;;18.27;5.70;;;;;;;11.07;78.22;94813.00;5115455;28;20438;-80
2023/04/23 00:26:10;;;;;;;7.70;5.87;;;;;;;11.00;78.76;94815.34;5115073;28;20434;-80
2023/04/23 00:28:37;;;;;;;6.03;5.53;;;;;;;10.94;79.74;94815.84;5115033;28;20447;-80
2023/04/23 00:31:04;;;;;;;5.90;5.17;;;;;;;10.93;79.53;94819.44;5115026;28;20443;-80
2023/04/23 00:33:31;;;;;;;8.20;5.83;;;;;;;10.91;79.09;94821.38;5115183;28;20526;-80
2023/04/23 00:35:59;;;;;;;6.80;6.07;;;;;;;10.90;79.13;94813.63;5115382;28;20845;-81
2023/04/23 00:38:26;;;;;;;10.20;5.67;;;;;;;10.88;80.00;94810.31;5114540;28;20467;-79
2023/04/23 00:40:53;;;;;;;6.27;5.67;;;;;;;10.84;80.18;94810.59;5114599;28;20463;-80
2023/04/23 00:43:20;;;;;;;6.50;5.50;;;;;;;10.77;79.48;94800.75;5114414;28;20933;-81
2023/04/23 00:45:47;;;;;;;6.37;5.77;;;;;;;10.68;79.39;94804.16;5114451;28;20466;-81
2023/04/23 00:48:14;;;;;;;6.90;6.20;;;;;;;10.59;80.53;94800.56;5114679;28;20788;-80
2023/04/23 00:50:42;;;;;;;8.83;5.73;;;;;;;10.55;80.48;94802.63;5114812;28;20463;-79
2023/04/23 00:53:10;;;;;;;7.33;5.43;;;;;;;10.54;81.42;94794.88;5114827;28;20446;-81
2023/04/23 00:59:01;;;;;;;6.63;6.00;;;;;;;10.47;82.07;94802.44;5114124;28;20952;-81
2023/04/23 01:01:29;;;;;;;6.60;6.00;;;;;;;10.34;83.39;94809.69;5114146;28;20431;-81
2023/04/23 01:03:56;;;;;;;6.90;6.20;;;;;;;10.38;83.59;94803.22;5114566;28;20981;-81
2023/04/23 01:06:27;;;;;;;8.93;5.20;;;;;;;10.33;83.97;94794.91;5114048;28;20442;-80
2023/04/23 01:12:17;;;;;;;6.63;5.90;;;;;;;10.20;84.63;94807.38;5113631;28;20464;-81
2023/04/23 01:14:45;;;;;;;8.40;5.60;;;;;;;10.11;86.28;94808.16;5114227;28;20438;-80
2023/04/23 01:17:13;;;;;;;7.00;6.30;;;;;;;10.18;86.34;94811.94;5114337;28;20547;-80
2023/04/23 01:19:40;;;;;;;7.83;6.40;;;;;;;10.23;85.24;94815.03;5114233;28;20976;-80
2023/04/23 01:22:10;;;;;;;8.30;6.90;;;;;;;10.06;86.09;94820.81;5095174;28;20434;-81
2023/04/23 01:24:38;;;;;;;8.43;7.53;;;;;;;9.77;86.62;94803.09;5114185;28;20787;-80
2023/04/23 01:27:06;;;;;;;7.90;7.10;;;;;;;9.69;86.72;94816.00;5113785;28;20959;-81
2023/04/23 01:29:36;;;;;;;10.43;7.90;;;;;;;9.68;86.65;94816.16;5113775;28;20445;-80
2023/04/23 01:32:03;;;;;;;8.47;7.50;;;;;;;9.56;86.99;94807.53;5113959;28;20446;-80
2023/04/23 01:34:31;;;;;;;11.50;8.00;;;;;;;9.50;86.79;94827.16;5061825;28;20937;-80
2023/04/23 01:36:59;;;;;;;11.90;8.77;;;;;;;9.58;86.09;94819.53;5114151;28;20430;-81
2023/04/23 01:39:27;;;;;;;11.33;8.37;;;;;;;9.70;86.52;94820.31;5113586;28;20476;-80
2023/04/23 01:41:54;;;;;;;8.30;7.50;;;;;;;9.78;85.58;94827.50;5113934;28;20427;-80
2023/04/23 01:44:21;;;;;;;9.20;6.97;;;;;;;9.65;85.96;94827.72;5113680;28;20445;-79
2023/04/23 01:46:48;;;;;;;11.30;9.73;;;;;;;9.58;85.95;94829.19;5113790;28;20796;-80
2023/04/23 01:49:14;;;;;;;10.47;8.10;;;;;;;9.56;86.17;94829.31;5113766;28;20804;-80
2023/04/23 01:55:13;;;;;;;9.60;8.40;;;;;;;9.76;84.89;94832.88;5094328;28;20479;-81
2023/04/23 01:57:40;;;;;;;8.73;7.93;;;;;;;9.86;85.25;94839.06;5113581;28;20437;-80
2023/04/23 02:00:10;;;;;;;9.70;8.60;;;;;;;9.88;85.27;94831.88;5113521;28;20473;-81
2023/04/23 02:02:37;;;;;;;9.03;7.37;;;;;;;9.92;84.04;94838.53;5114506;28;20430;-80
2023/04/23 02:05:09;;;;;;;9.07;8.10;;;;;;;9.99;84.40;94838.03;5113966;28;20496;-80
2023/04/23 02:07:36;;;;;;;10.00;8.17;;;;;;;9.99;83.18;94838.03;5063926;28;20499;-81
2023/04/23 02:10:04;;;;;;;10.50;7.83;;;;;;;10.02;82.78;94840.38;5113597;28;20461;-80
2023/04/23 02:12:32;;;;;;;10.73;8.13;;;;;;;10.04;82.73;94835.84;5113598;28;20528;-81
2023/04/23 02:14:59;;;;;;;10.30;7.67;;;;;;;10.05;82.84;94840.94;5113594;28;20764;-82
2023/04/23 02:24:09;;;;;;;10.70;7.10;;;;;;;10.06;82.97;94834.75;5113382;28;20415;-80
2023/04/23 02:26:36;;;;;;;13.50;6.90;;;;;;;10.09;83.07;94842.34;5113573;28;20537;-81
2023/04/23 02:29:04;;;;;;;7.87;7.00;;;;;;;10.11;82.77;94842.22;5113670;28;20441;-81
2023/04/23 02:31:31;;;;;;;8.37;7.40;;;;;;;10.10;83.06;94833.53;5113505;28;20460;-80
2023/04/23 02:33:58;;;;;;;7.53;6.83;;;;;;;10.13;81.87;94835.09;5115628;28;20429;-81
2023/04/23 02:36:27;;;;;;;8.43;7.40;;;;;;;10.05;82.63;94829.63;5117295;28;20430;-81
2023/04/23 02:38:54;;;;;;;8.30;7.10;;;;;;;10.00;82.56;94832.66;5117260;28;20584;-80
2023/04/23 02:41:21;;;;;;;9.13;7.30;;;;;;;9.95;81.93;94819.09;5116886;28;20963;-79
2023/04/23 02:43:47;;;;;;;7.53;6.73;;;;;;;9.94;82.16;94831.38;5116885;28;20436;-80
2023/04/23 02:46:16;;;;;;;8.93;7.90;;;;;;;9.90;82.56;94823.91;5116662;28;20441;-80
2023/04/23 02:48:43;;;;;;;9.90;7.40;;;;;;;9.83;82.80;94831.44;5116712;28;20814;-80
2023/04/23 02:51:12;;;;;;;9.53;7.30;;;;;;;9.72;84.49;94830.66;5116841;28;20494;-80
2023/04/23 02:53:38;;;;;;;11.30;7.23;;;;;;;9.60;84.26;94825.47;5116988;28;20437;-80
2023/04/23 02:56:07;;;;;;;9.30;7.03;;;;;;;9.65;84.86;94832.94;5117119;28;20530;-81
2023/04/23 02:58:34;;;;;;;10.60;5.90;;;;;;;9.69;84.26;94834.34;5117225;28;20462;-81
2023/04/23 03:01:01;;;;;;;8.53;7.67;;;;;;;9.68;84.21;94835.31;5116406;28;20828;-80
2023/04/23 03:03:33;;;;;;;8.17;7.00;;;;;;;9.62;84.11;94846.31;5117229;28;20445;-79
2023/04/23 03:06:01;;;;;;;13.90;7.73;;;;;;;9.58;84.21;94847.50;5116657;28;20445;-80
2023/04/23 03:12:05;;;;;;;10.67;8.00;;;;;;;9.43;84.52;94846.13;5075866;28;20431;-82
2023/04/23 03:14:32;;;;;;;10.70;7.10;;;;;;;9.39;84.90;94844.72;5024419;28;20438;-81
2023/04/23 03:16:58;;;;;;;7.97;7.17;;;;;;;9.36;86.17;94855.44;5075719;28;20423;-81
2023/04/23 03:19:27;;;;;;;9.27;6.57;;;;;;;9.33;86.10;94848.66;5024120;28;20548;-80
2023/04/23 03:21:53;;;;;;;9.50;6.80;;;;;;;9.32;85.98;94847.84;5075774;28;20445;-80
2023/04/23 03:24:20;;;;;;;10.20;7.70;;;;;;;9.28;86.60;94849.03;5075332;28;20440;-81
2023/04/23 03:26:48;;;;;;;7.90;7.13;;;;;;;9.32;86.81;94854.84;5075961;28;20439;-80
2023/04/23 03:29:15;;;;;;;8.07;7.27;;;;;;;9.30;86.96;94846.31;5076256;28;20439;-80
2023/04/23 03:31:42;;;;;;;8.33;7.50;;;;;;;9.36;86.54;94855.44;5075914;28;20457;-81
2023/04/23 03:34:09;;;;;;;9.23;8.07;;;;;;;9.28;87.28;94848.22;5075450;28;20434;-81
2023/04/23 03:36:37;;;;;;;9.33;8.00;;;;;;;9.34;86.92;94855.56;5075487;28;20447;-79
2023/04/23 03:39:04;;;;;;;12.33;7.67;;;;;;;9.39;87.07;94858.63;5075764;28;20875;-81
2023/04/23 03:48:14;;;;;;;9.10;7.33;;;;;;;9.41;86.46;94855.91;5074725;28;20419;-80
2023/04/23 03:50:41;;;;;;;10.07;8.07;;;;;;;9.44;86.12;94864.34;5074101;28;20450;-81
2023/04/23 03:53:10;;;;;;;7.83;7.23;;;;;;;9.49;85.86;94869.19;5073990;28;20931;-81
2023/04/23 03:55:36;;;;;;;7.20;6.60;;;;;;;9.55;85.86;94868.72;5074334;28;20474;-80
2023/04/23 03:58:03;;;;;;;10.57;7.73;;;;;;;9.63;86.15;94882.84;5075053;28;20435;-81
2023/04/23 04:00:30;;;;;;;9.53;7.50;;;;;;;9.68;85.75;94877.22;5039840;28;20486;-81
2023/04/23 04:02:57;;;;;;;8.10;7.43;;;;;;;9.72;84.92;94883.88;5075311;28;20432;-76
2023/04/23 04:05:24;;;;;;;9.50;7.83;;;;;;;9.66;85.06;94876.53;5074671;28;20455;-79
2023/04/23 04:07:50;;;;;;;11.10;8.10;;;;;;;9.65;84.58;94885.34;5074608;28;20447;-79
2023/04/23 04:10:19;;;;;;;11.23;9.37;;;;;;;9.59;84.14;94884.06;5074286;28;20432;-85
2023/04/23 04:12:46;;;;;;;11.77;10.00;;;;;;;9.60;84.73;94887.50;5074442;28;20474;-80
2023/04/23 04:15:13;;;;;;;11.40;9.60;;;;;;;9.54;84.32;94885.38;5074823;28;20428;-79
2023/04/23 04:17:40;;;;;;;10.27;8.80;;;;;;;9.63;85.61;94880.22;5074848;28;20454;-85
2023/04/23 04:20:08;;;;;;;9.53;8.60;;;;;;;10.15;84.42;94875.94;5074663;28;20484;-81
2023/04/23 04:22:35;;;;;;;9.63;8.60;;;;;;;10.72;82.71;94881.69;5074531;28;20452;-80
2023/04/23 04:25:04;;;;;;;9.97;8.27;;;;;;;11.39;79.60;94883.72;5055724;28;20476;-79
2023/04/23 04:27:33;;;;;;;14.57;10.80;;;;;;;13.10;84.04;94873.28;5074161;28;20875;-81
2023/04/23 04:30:01;;;;;;;11.37;8.10;;;;;;;13.10;72.58;94883.84;5074869;28;20481;-81
2023/04/23 04:32:28;;;;;;;10.60;6.53;;;;;;;13.27;70.39;94880.44;5074798;28;20433;-81
2023/04/23 04:34:54;;;;;;;12.60;7.50;;;;;;;13.41;69.58;94895.78;5074268;28;20950;-80
2023/04/23 04:37:21;;;;;;;8.07;6.83;;;;;;;13.55;68.45;94892.63;5073897;28;20453;-81
2023/04/23 04:39:48;;;;;;;10.10;6.47;;;;;;;13.58;67.42;94897.59;5073970;28;20473;-81
2023/04/23 04:42:15;;;;;;;8.20;7.00;;;;;;;13.46;67.55;94898.78;5073882;28;20447;-81
2023/04/23 04:44:43;;;;;;;8.63;6.90;;;;;;;14.02;72.02;94905.63;5074499;28;20440;-83
2023/04/23 04:47:12;;;;;;;6.33;5.70;;;;;;;14.13;67.42;94913.31;5073746;28;20449;-81
2023/04/23 04:49:39;;;;;;;11.20;7.43;;;;;;;14.25;66.81;94901.56;5073749;28;20474;-81
2023/04/23 04:52:06;;;;;;;7.17;6.47;;;;;;;14.56;65.90;94907.28;5073907;28;20435;-81
2023/04/23 04:54:34;;;;;;;10.40;6.37;;;;;;;14.80;64.22;94904.00;5073629;28;20596;-81
2023/04/23 05:00:34;;;;;;;12.80;9.10;;;;;;;15.15;63.11;94900.41;4951565;29;20557;-81
2023/04/23 05:03:02;;;;;;;11.67;9.57;;;;;;;15.33;62.18;94902.97;4967990;28;20506;-81
2023/04/23 05:05:29;;;;;;;12.07;9.30;;;;;;;15.53;62.60;94900.88;4982830;28;20532;-81
2023/04/23 05:08:01;;;;;;;9.90;8.80;;;;;;;15.67;61.33;94902.13;4982343;28;20499;-81
2023/04/23 05:10:28;;;;;;;9.30;8.20;;;;;;;15.49;61.00;94900.38;4972655;28;20452;-81
2023/04/23 05:12:54;;;;;;;8.70;7.80;;;;;;;15.44;61.24;94902.66;4972748;28;20450;-81
2023/04/23 05:15:21;;;;;;;11.30;8.07;;;;;;;15.34;61.83;94912.56;4972478;28;20457;-75
2023/04/23 05:17:52;;;;;;;10.33;8.30;;;;;;;15.07;62.81;94910.09;4972737;28;20449;-79
2023/04/23 05:20:19;;;;;;;7.87;7.07;;;;;;;15.40;62.46;94908.44;4972564;28;20499;-79
2023/04/23 05:22:47;;;;;;;10.20;8.30;;;;;;;15.62;61.69;94905.25;4969930;28;20438;-80
2023/04/23 05:25:14;;;;;;;9.57;7.90;;;;;;;16.07;61.41;94910.16;5081896;28;20764;-79
2023/04/23 05:27:41;;;;;;;10.03;8.00;;;;;;;16.58;59.51;94900.25;5093699;28;20441;-78
2023/04/23 05:30:10;;;;;;;8.53;7.63;;;;;;;16.71;57.86;94902.41;5093438;28;20501;-80
2023/04/23 05:32:37;;;;;;;11.60;6.90;;;;;;;16.78;58.44;94906.06;5093039;28;20440;-79
2023/04/23 05:35:06;;;;;;;8.50;6.30;;;;;;;16.46;58.78;94909.50;5093870;28;20484;-83
2023/04/23 05:37:33;;;;;;;7.80;7.00;;;;;;;16.36;57.98;94914.16;5048643;28;20442;-80
2023/04/23 05:40:01;;;;;;;7.87;6.47;;;;;;;16.42;58.17;94913.50;5073206;28;20491;-80
2023/04/23 05:42:28;;;;;;;7.03;6.43;;;;;;;16.07;59.43;94910.16;5058286;28;20445;-80
2023/04/23 05:44:55;;;;;;;7.80;6.27;;;;;;;16.03;61.30;94910.63;5093595;28;20452;-79
2023/04/23 05:47:21;;;;;;;7.73;6.67;;;;;;;16.37;61.40;94910.50;5093213;28;20838;-80
2023/04/23 05:53:11;;;;;;;8.23;6.30;;;;;;;17.25;57.48;94915.91;5092983;28;20434;-79
2023/04/23 05:55:38;;;;;;;12.03;7.57;;;;;;;17.20;58.26;94916.41;5093479;28;20482;-79
2023/04/23 05:58:05;;;;;;;8.83;7.03;;;;;;;17.38;58.82;94904.78;5093304;28;20450;-79
2023/04/23 06:00:34;;;;;;;7.40;6.70;;;;;;;17.82;57.61;94910.41;5093357;28;20478;-79
2023/04/23 06:03:00;;;;;;;7.60;6.93;;;;;;;17.99;55.83;94908.50;5093034;28;20441;-79
2023/04/23 06:05:27;;;;;;;8.30;6.73;;;;;;;17.99;54.94;94916.47;5092867;28;20458;-79
2023/04/23 06:07:54;;;;;;;8.23;6.50;;;;;;;18.24;54.62;94907.34;5041607;28;20439;-79
2023/04/23 06:10:22;;;;;;;11.63;7.40;;;;;;;18.34;55.08;94901.81;5097858;28;20443;-80
2023/04/23 06:12:49;;;;;;;10.07;6.97;;;;;;;18.42;54.83;94905.22;5097267;28;20424;-80
2023/04/23 06:15:19;;;;;;;8.07;7.27;;;;;;;18.52;53.32;94912.97;5097288;28;20435;-79
2023/04/23 06:17:46;;;;;;;7.90;6.70;;;;;;;18.31;54.48;94912.78;5097824;28;20898;-80
2023/04/23 06:20:12;;;;;;;9.33;6.77;;;;;;;18.24;53.57;94910.00;5097126;28;20486;-79
2023/04/23 06:22:39;;;;;;;9.20;6.37;;;;;;;18.67;54.35;94907.72;5044867;28;20451;-79
2023/04/23 06:25:06;;;;;;;7.53;6.80;;;;;;;18.69;53.06;94903.03;5097209;28;20489;-79
2023/04/23 06:27:35;;;;;;;7.53;6.73;;;;;;;18.73;53.96;94907.81;5096808;28;20941;-77
2023/04/23 06:30:01;;;;;;;8.30;7.43;;;;;;;18.98;53.49;94903.09;5096959;28;20509;-79
2023/04/23 06:32:28;;;;;;;14.00;6.80;;;;;;;19.02;53.99;94898.25;5096683;28;20428;-79
2023/04/23 06:34:55;;;;;;;8.00;7.20;;;;;;;19.26;53.64;94891.84;5044699;28;20954;-79
2023/04/23 06:37:22;;;;;;;9.70;6.73;;;;;;;19.05;52.57;94903.19;5097544;28;20501;-81
2023/04/23 06:39:49;;;;;;;9.13;7.03;;;;;;;19.05;53.81;94904.03;5096647;28;20470;-79
2023/04/23 06:42:16;;;;;;;8.60;7.53;;;;;;;18.69;54.50;94900.38;5096788;28;20456;-78
2023/04/23 06:44:45;;;;;;;7.70;7.00;;;;;;;18.66;54.78;94898.09;5096848;28;20428;-82
2023/04/23 06:47:12;;;;;;;9.80;8.17;;;;;;;18.99;54.86;94890.63;5045644;28;20523;-80
2023/04/23 06:49:40;;;;;;;8.33;7.57;;;;;;;18.93;55.10;94891.38;5096308;28;20438;-79
2023/04/23 06:52:06;;;;;;;13.43;9.17;;;;;;;18.99;55.24;94891.47;5097051;28;20443;-79
2023/04/23 06:54:33;;;;;;;9.53;7.73;;;;;;;18.77;54.63;94897.66;5095547;28;20828;-79
2023/04/23 06:57:01;;;;;;;15.10;7.87;;;;;;;18.56;55.84;94891.16;5087421;28;20862;-79
2023/04/23 06:59:28;;;;;;;8.10;7.30;;;;;;;18.49;56.70;94884.06;5087610;28;20451;-79
2023/04/23 07:01:56;;;;;;;8.73;7.90;;;;;;;18.30;56.65;94889.88;5096169;28;20437;-80
2023/04/23 07:04:22;;;;;;;16.90;7.90;;;;;;;18.38;57.40;94887.97;5096417;28;20444;-79
2023/04/23 07:06:49;;;;;;;10.53;7.47;;;;;;;18.54;57.65;94893.19;5095916;28;20428;-81
2023/04/23 07:09:16;;;;;;;7.80;7.00;;;;;;;18.95;55.15;94887.50;5079210;28;20489;-79
2023/04/23 07:11:43;;;;;;;8.90;7.20;;;;;;;19.05;54.67;94888.06;5075847;28;20426;-80
2023/04/23 07:14:10;;;;;;;9.17;7.23;;;;;;;18.89;54.97;94888.25;5076014;28;20437;-80
2023/04/23 07:16:36;;;;;;;8.10;6.73;;;;;;;19.14;54.61;94887.00;5076226;28;20431;-79
2023/04/23 07:19:05;;;;;;;8.03;7.10;;;;;;;19.54;52.81;94895.56;5075774;28;20431;-79
2023/04/23 07:21:31;;;;;;;8.63;6.20;;;;;;;19.54;52.49;94884.06;5083429;28;20829;-80
2023/04/23 07:24:02;;;;;;;11.90;7.40;;;;;;;19.15;53.62;94886.00;5095530;28;20472;-81
2023/04/23 07:26:28;;;;;;;8.43;7.53;;;;;;;19.12;53.34;94886.34;5095627;28;20794;-81
2023/04/23 07:28:55;;;;;;;8.37;7.57;;;;;;;18.76;54.38;94880.03;5095859;28;20443;-80
2023/04/23 07:31:22;;;;;;;9.27;8.17;;;;;;;18.97;54.00;94882.00;5086193;28;20459;-81
2023/04/23 07:33:49;;;;;;;6.93;6.33;;;;;;;19.46;54.48;94874.34;5075584;28;20482;-81
2023/04/23 07:36:17;;;;;;;7.93;7.23;;;;;;;19.85;51.17;94881.19;5075058;28;20463;-81
2023/04/23 07:38:44;;;;;;;8.17;7.40;;;;;;;20.06;52.04;94871.41;5075520;28;20443;-81
2023/04/23 07:41:11;;;;;;;8.60;7.80;;;;;;;19.83;51.68;94883.22;5095045;28;20493;-80
2023/04/23 07:43:38;;;;;;;9.27;7.80;;;;;;;19.43;51.41;94880.84;5076084;28;20441;-81
2023/04/23 07:46:06;;;;;;;16.50;8.97;;;;;;;19.28;52.72;94877.34;5088930;28;20555;-80
2023/04/23 07:48:33;;;;;;;9.43;8.53;;;;;;;19.12;54.27;94878.38;5074964;28;20945;-81
2023/04/23 07:51:01;;;;;;;9.50;8.40;;;;;;;19.12;53.40;94880.22;5074592;28;21011;-80
2023/04/23 07:53:29;;;;;;;14.40;8.10;;;;;;;19.12;53.58;94881.03;5074540;28;20456;-80
2023/04/23 07:55:57;;;;;;;11.00;8.37;;;;;;;18.57;55.01;94873.38;5074149;28;20473;-80
2023/04/23 07:58:24;;;;;;;11.83;8.23;;;;;;;18.70;53.94;94878.13;5073319;28;20952;-81
2023/04/23 08:00:51;;;;;;;9.60;7.40;;;;;;;18.17;54.77;94877.16;5072966;28;20845;-81
2023/04/23 08:03:18;;;;;;;7.90;7.20;;;;;;;18.28;54.69;94884.75;5073243;28;20441;-80
2023/04/23 08:05:44;;;;;;;8.33;7.40;;;;;;;18.45;54.16;94870.31;5073496;28;20440;-81
2023/04/23 08:08:12;;;;;;;11.13;8.20;;;;;;;18.92;53.79;94873.75;5073051;28;20441;-79
2023/04/23 08:10:41;;;;;;;9.40;8.07;;;;;;;19.38;53.72;94867.28;5072922;28;20454;-80
2023/04/23 08:13:08;;;;;;;8.77;7.97;;;;;;;19.69;52.21;94868.94;5073074;28;20458;-80
2023/04/23 08:15:35;;;;;;;9.30;8.33;;;;;;;19.77;50.94;94874.97;5073007;28;20973;-80
2023/04/23 08:18:02;;;;;;;9.20;7.20;;;;;;;19.86;49.85;94874.84;5054049;28;20456;-80
2023/04/23 08:20:30;;;;;;;14.27;7.83;;;;;;;20.03;49.82;94873.63;5037361;28;20520;-79
2023/04/23 08:22:57;;;;;;;9.07;7.67;;;;;;;19.89;49.84;94866.47;5072824;28;20934;-79
2023/04/23 08:25:24;;;;;;;14.03;9.17;;;;;;;19.80;50.51;94866.59;5073018;28;20433;-80
2023/04/23 08:27:52;;;;;;;11.10;8.40;;;;;;;19.70;50.60;94873.25;5072624;28;20445;-80
2023/04/23 08:30:19;;;;;;;9.77;8.57;;;;;;;19.17;51.56;94859.19;5072477;28;20452;-80
2023/04/23 08:32:52;;;;;;;9.50;8.50;;;;;;;19.30;51.44;94850.56;5071911;28;20451;-79
2023/04/23 08:35:19;;;;;;;13.30;8.07;;;;;;;18.95;51.62;94855.59;5072913;28;20438;-80
2023/04/23 08:37:46;;;;;;;10.73;8.80;;;;;;;18.65;52.58;94852.06;5072365;28;20819;-80
2023/04/23 08:40:13;;;;;;;12.30;8.37;;;;;;;18.66;52.95;94856.38;5072621;28;20457;-80
2023/04/23 08:42:43;;;;;;;8.93;8.10;;;;;;;18.64;53.04;94860.22;5072613;28;20444;-80
2023/04/23 08:45:12;;;;;;;15.17;8.30;;;;;;;18.56;54.09;94859.28;5072752;28;20497;-80
2023/04/23 08:47:41;;;;;;;9.97;8.93;;;;;;;18.96;52.76;94854.59;5072616;28;20448;-81
2023/04/23 08:50:11;;;;;;;14.40;8.30;;;;;;;19.03;52.71;94834.22;5072651;28;20456;-79
2023/04/23 08:52:40;;;;;;;13.40;8.47;;;;;;;19.14;53.68;94835.63;5072374;28;20452;-79
2023/04/23 08:55:10;;;;;;;9.40;8.37;;;;;;;18.99;52.67;94848.91;5072237;28;20442;-80
2023/04/23 08:57:38;;;;;;;11.53;8.00;;;;;;;19.11;51.65;94842.16;5072189;28;20532;-80
2023/04/23 09:00:07;;;;;;;8.83;8.03;;;;;;;19.14;50.98;94841.78;5072018;28;20498;-79
2023/04/23 09:02:36;;;;;;;9.20;8.27;;;;;;;18.79;51.66;94843.31;5072103;28;20443;-80
2023/04/23 09:05:04;;;;;;;10.13;7.50;;;;;;;18.36;53.76;94831.53;5072050;28;20451;-80
2023/04/23 09:07:31;;;;;;;9.97;7.77;;;;;;;18.35;54.79;94834.38;5072048;28;20438;-80
2023/04/23 09:09:58;;;;;;;8.70;7.80;;;;;;;18.52;53.21;94827.94;5071918;28;20773;-80
2023/04/23 09:12:25;;;;;;;8.00;7.17;;;;;;;18.75;52.61;94839.34;5072064;28;20453;-80
2023/04/23 09:14:52;;;;;;;9.30;8.40;;;;;;;18.94;51.92;94837.16;5071997;28;20433;-80
2023/04/23 09:17:20;;;;;;;9.80;7.87;;;;;;;18.34;51.72;94849.50;5071762;28;20445;-80
2023/04/23 09:19:50;;;;;;;10.13;8.77;;;;;;;18.62;51.87;94835.63;5071710;28;20455;-79
2023/04/23 09:22:38;;;;;;;9.60;7.70;;;;;;;18.99;51.36;94830.28;5071685;28;20496;-80
2023/04/23 09:25:06;;;;;;;7.90;6.87;;;;;;;19.03;50.75;94826.25;5072013;28;20461;-79
2023/04/23 09:27:33;;;;;;;8.10;7.30;;;;;;;19.19;50.82;94819.94;5071928;28;20454;-80
2023/04/23 09:30:03;;;;;;;12.47;8.00;;;;;;;19.46;49.80;94824.59;5071990;28;20448;-79
2023/04/23 09:32:32;;;;;;;7.93;7.13;;;;;;;19.71;49.38;94827.78;5072158;28;20526;-81
2023/04/23 09:35:03;;;;;;;8.27;7.50;;;;;;;19.45;48.61;94822.13;5072026;28;20451;-80
2023/04/23 09:37:29;;;;;;;8.30;7.53;;;;;;;19.01;48.61;94824.78;5072248;28;20479;-80
2023/04/23 09:39:59;;;;;;;9.37;8.27;;;;;;;19.33;48.84;94816.41;5071805;28;20469;-80
2023/04/23 09:42:28;;;;;;;13.00;7.20;;;;;;;19.18;48.23;94813.78;5073343;28;20885;-81
2023/04/23 09:44:56;;;;;;;8.53;7.70;;;;;;;18.80;49.05;94812.25;5078121;28;20865;-81
2023/04/23 09:47:23;;;;;;;9.50;7.63;;;;;;;18.90;49.03;94807.47;5078236;28;20894;-81
2023/04/23 09:49:50;;;;;;;10.00;7.87;;;;;;;18.87;49.59;94795.38;5078688;28;20864;-81
2023/04/23 09:52:19;;;;;;;8.47;7.47;;;;;;;18.95;50.85;94805.06;5078430;28;20504;-79
2023/04/23 09:54:46;;;;;;;12.93;8.20;;;;;;;18.96;49.17;94793.44;5078532;28;20528;-81
2023/04/23 09:57:13;;;;;;;9.90;6.93;;;;;;;19.07;48.80;94792.97;5078536;28;20859;-80
2023/04/23 09:59:41;;;;;;;8.23;6.70;;;;;;;19.28;48.43;94789.56;5078288;28;20488;-81
2023/04/23 10:02:08;;;;;;;8.20;6.83;;;;;;;19.23;47.28;94796.44;5078591;28;20489;-80
2023/04/23 10:04:35;;;;;;;13.00;8.07;;;;;;;19.16;46.99;94781.22;5078620;28;20551;-80
2023/04/23 10:07:07;;;;;;;7.60;6.83;;;;;;;19.08;47.94;94781.34;5078495;28;20453;-80
2023/04/23 10:09:35;;;;;;;8.47;7.30;;;;;;;19.26;48.51;94783.59;5078623;28;20445;-80
2023/04/23 10:12:03;;;;;;;9.10;7.30;;;;;;;18.86;49.21;94779.59;5078541;28;20449;-80
2023/04/23 10:14:30;;;;;;;9.07;8.20;;;;;;;18.99;48.64;94786.91;5080001;28;20437;-81
2023/04/23 10:16:59;;;;;;;15.03;8.03;;;;;;;18.60;49.60;94772.03;5080519;28;20925;-82
2023/04/23 10:19:28;;;;;;;8.87;7.00;;;;;;;18.42;49.87;94782.16;5079768;28;20436;-81
2023/04/23 10:21:59;;;;;;;10.43;8.10;;;;;;;18.48;49.90;94776.94;5079772;28;20836;-81
2023/04/23 10:24:29;;;;;;;9.13;7.40;;;;;;;18.28;50.32;94765.22;5079866;28;20442;-82
2023/04/23 10:37:40;;;;;;;8.50;6.73;;;;;;;19.45;45.74;94747.59;5087498;28;20411;-80
2023/04/23 10:40:11;;;;;;;7.03;6.43;;;;;;;19.47;46.70;94745.56;5088824;28;20432;-82
2023/04/23 10:42:42;;;;;;;6.60;5.77;;;;;;;19.17;45.72;94744.81;5039262;28;20500;-81
2023/04/23 10:45:14;;;;;;;17.27;7.00;;;;;;;19.03;46.53;94743.81;5088059;28;20431;-81
2023/04/23 10:47:43;;;;;;;10.30;6.87;;;;;;;19.24;47.80;94742.22;5090352;28;20421;-80
2023/04/23 10:50:19;;;;;;;7.37;6.63;;;;;;;19.39;44.88;94748.34;5087164;28;20431;-80
2023/04/23 10:59:51;;;;;;;7.97;6.33;;;;;;;19.11;43.79;94729.59;5073140;28;20468;-81
2023/04/23 11:02:18;;;;;;;11.13;7.40;;;;;;;19.21;43.13;94726.63;5101965;28;20464;-83
2023/04/23 11:04:46;;;;;;;9.20;6.83;;;;;;;19.44;44.35;94714.00;5108220;28;20514;-81
2023/04/23 11:07:18;;;;;;;8.03;6.67;;;;;;;19.67;44.00;94706.72;5106085;28;20433;-82
2023/04/23 11:09:47;;;;;;;7.20;6.50;;;;;;;19.80;42.61;94714.81;5108055;28;20439;-81
2023/04/23 11:12:30;;;;;;;7.70;6.77;;;;;;;19.94;42.36;94709.59;5110088;28;20439;-81
2023/04/23 11:14:59;;;;;;;9.43;6.90;;;;;;;19.79;42.24;94707.00;5106284;28;20456;-84
2023/04/23 11:18:03;;;;;;;6.23;5.73;;;;;;;19.33;42.55;94706.50;5117153;28;20431;-84
2023/04/23 11:20:30;;;;;;;7.10;6.20;;;;;;;19.59;42.61;94698.00;5104335;28;20458;-82
2023/04/23 11:22:57;;;;;;;5.93;5.43;;;;;;;19.74;41.92;94699.59;5089925;28;20505;-80
2023/04/23 11:25:25;;;;;;;9.93;6.60;;;;;;;19.65;41.51;94698.06;5106504;28;20431;-81
2023/04/23 11:27:54;;;;;;;6.10;5.53;;;;;;;19.37;40.13;94697.13;5113049;28;20453;-83
2023/04/23 11:30:24;;;;;;;5.20;4.60;;;;;;;19.21;40.02;94694.72;5115110;28;20439;-84
2023/04/23 11:32:52;;;;;;;5.50;5.00;;;;;;;19.41;38.47;94688.59;5099208;28;20506;-83
2023/04/23 11:35:27;;;;;;;5.63;5.13;;;;;;;19.57;39.26;94687.56;5076234;28;20436;-83
2023/04/23 11:37:54;;;;;;;6.40;5.23;;;;;;;19.59;36.77;94682.03;5109384;28;20446;-82
2023/04/23 11:40:29;;;;;;;5.80;5.30;;;;;;;19.41;36.93;94683.28;5107720;28;20442;-82
2023/04/23 11:42:57;;;;;;;7.97;6.20;;;;;;;19.49;37.34;94680.50;5109158;28;20473;-80
2023/04/23 11:45:27;;;;;;;10.13;6.07;;;;;;;19.63;37.82;94657.50;5112700;28;20453;-82
2023/04/23 11:47:55;;;;;;;8.10;5.70;;;;;;;19.88;37.14;94670.41;5080419;28;20437;-82
2023/04/23 11:50:24;;;;;;;6.03;5.17;;;;;;;19.51;37.61;94664.31;5094562;28;20450;-81
2023/04/23 11:52:51;;;;;;;13.60;4.93;;;;;;;19.48;36.17;94662.88;5112019;28;20473;-82
2023/04/23 11:55:19;;;;;;;5.63;5.17;;;;;;;19.57;34.10;94660.94;5118822;28;20437;-81
2023/04/23 11:57:47;;;;;;;5.33;4.80;;;;;;;19.61;35.02;94654.22;5118631;28;20431;-83
2023/04/23 12:00:16;;;;;;;6.83;4.63;;;;;;;19.86;34.82;94656.47;5118129;28;20448;-83
2023/04/23 12:02:52;;;;;;;5.80;5.30;;;;;;;19.53;38.39;94646.34;5048399;28;20533;-85
2023/04/23 12:05:21;;;;;;;5.77;5.37;;;;;;;19.68;40.97;94641.81;5094748;28;20463;-80
2023/04/23 12:07:55;;;;;;;8.33;7.23;;;;;;;19.70;41.59;94647.75;5050483;28;20443;-80
2023/04/23 12:10:22;;;;;;;7.73;6.37;;;;;;;18.92;41.25;94642.41;5088069;28;20440;-81
2023/04/23 12:12:51;;;;;;;7.47;6.20;;;;;;;18.54;41.39;94651.34;5126637;28;20455;-81
2023/04/23 12:15:18;;;;;;;6.40;5.57;;;;;;;18.43;41.65;94637.69;5098745;28;20472;-81
2023/04/23 12:17:49;;;;;;;6.00;5.50;;;;;;;18.42;39.86;94651.97;5085236;28;20494;-85
2023/04/23 12:20:19;;;;;;;5.23;4.73;;;;;;;18.38;40.20;94638.25;5083310;28;20451;-83
2023/04/23 12:22:47;;;;;;;5.87;5.27;;;;;;;18.51;38.13;94649.06;5074993;28;20499;-82
2023/04/23 12:25:14;;;;;;;5.70;5.07;;;;;;;18.65;37.69;94639.44;5074730;28;20429;-82
2023/04/23 12:27:42;;;;;;;5.37;4.87;;;;;;;18.86;38.10;94633.34;5075161;28;20498;-80